Time;durP1;ratioP1;P1;durP2;ratioP2;P2;SDS_P1;SDS_P2;PMS_P1;PMS_P2;Temp;Humidity;BMP_temperature;BMP_pressure;BME280_temperature;BME280_humidity;BME280_pressure;Samples;Min_cycle;Max_cycle;Signal;HPM_P1;HPM_P2
2021/11/30 00:01:21;;;;;;;1.65;0.77;;;1.30;82.60;;;;;;5108034;28;20042;-74
2021/11/30 00:03:46;;;;;;;0.95;0.32;;;0.90;85.90;;;;;;5098398;28;20020;-73
2021/11/30 00:06:12;;;;;;;0.77;0.32;;;0.70;86.20;;;;;;5111401;28;20034;-72
2021/11/30 00:08:40;;;;;;;2.45;0.70;;;0.70;87.20;;;;;;5110031;28;20051;-72
2021/11/30 00:11:07;;;;;;;0.13;0.13;;;0.60;87.10;;;;;;5111818;28;20546;-72
2021/11/30 00:13:35;;;;;;;2.42;0.77;;;1.00;83.00;;;;;;5111195;28;20446;-73
2021/11/30 00:16:01;;;;;;;1.70;0.63;;;1.10;84.70;;;;;;5111108;28;20026;-73
2021/11/30 00:18:32;;;;;;;0.68;0.40;;;1.50;80.90;;;;;;5111757;28;20477;-72
2021/11/30 00:21:06;;;;;;;1.45;0.32;;;1.10;84.70;;;;;;5111882;28;20066;-72
2021/11/30 00:23:33;;;;;;;3.45;0.90;;;0.90;85.30;;;;;;5111929;28;20485;-72
2021/11/30 00:25:58;;;;;;;1.63;0.50;;;1.20;82.40;;;;;;5111174;28;20042;-72
2021/11/30 00:28:24;;;;;;;0.75;0.38;;;1.10;83.20;;;;;;5124368;27;20023;-72
2021/11/30 00:30:50;;;;;;;0.82;0.40;;;1.60;79.70;;;;;;5119856;27;20042;-72
2021/11/30 00:33:16;;;;;;;1.67;0.52;;;1.70;81.50;;;;;;5111889;28;20016;-72
2021/11/30 00:35:42;;;;;;;1.35;0.50;;;1.50;81.00;;;;;;5111097;28;20020;-72
2021/11/30 00:38:12;;;;;;;0.43;0.25;;;1.70;78.30;;;;;;5111906;28;20039;-72
2021/11/30 00:40:42;;;;;;;1.60;0.57;;;1.80;78.50;;;;;;5101041;28;20038;-72
2021/11/30 00:43:09;;;;;;;2.15;0.55;;;1.80;78.60;;;;;;5110923;28;20023;-72
2021/11/30 00:45:39;;;;;;;1.10;0.45;;;1.90;77.90;;;;;;5110413;28;20048;-72
2021/11/30 00:48:10;;;;;;;0.90;0.35;;;1.90;78.40;;;;;;5108678;28;20054;-72
2021/11/30 00:50:42;;;;;;;1.50;0.60;;;1.80;79.90;;;;;;5103158;28;20027;-72
2021/11/30 00:53:09;;;;;;;1.15;0.38;;;1.60;79.70;;;;;;5110312;28;20023;-72
2021/11/30 00:55:35;;;;;;;0.95;0.30;;;1.10;83.50;;;;;;5109843;28;20485;-72
2021/11/30 00:58:00;;;;;;;1.05;0.40;;;1.00;83.70;;;;;;5087889;28;20039;-72
2021/11/30 01:00:26;;;;;;;1.05;0.35;;;1.00;84.00;;;;;;5110163;28;20691;-72
2021/11/30 01:02:52;;;;;;;0.60;0.35;;;1.00;84.60;;;;;;5090990;28;20447;-72
2021/11/30 01:05:18;;;;;;;2.13;0.30;;;1.10;82.80;;;;;;5108995;28;20067;-73
2021/11/30 01:07:44;;;;;;;1.33;0.40;;;1.10;83.50;;;;;;5112864;28;20039;-72
2021/11/30 01:10:13;;;;;;;1.40;0.60;;;1.00;83.60;;;;;;5113008;28;20139;-73
2021/11/30 01:12:39;;;;;;;0.52;0.22;;;0.90;85.50;;;;;;5113854;28;20028;-72
2021/11/30 01:15:09;;;;;;;0.57;0.30;;;1.00;83.90;;;;;;5106181;28;20019;-73
2021/11/30 01:17:35;;;;;;;0.65;0.20;;;1.10;82.70;;;;;;5104174;28;20035;-73
2021/11/30 01:20:01;;;;;;;1.10;0.50;;;1.40;81.10;;;;;;5112436;28;20050;-73
2021/11/30 01:22:26;;;;;;;1.45;0.50;;;1.60;79.10;;;;;;5114690;28;20032;-73
2021/11/30 01:24:52;;;;;;;2.08;0.38;;;1.60;79.70;;;;;;5115224;28;20028;-72
2021/11/30 01:27:18;;;;;;;0.47;0.20;;;1.80;77.90;;;;;;5114225;28;20081;-73
2021/11/30 01:29:44;;;;;;;1.02;0.40;;;1.80;78.50;;;;;;5114748;28;20024;-72
2021/11/30 01:32:10;;;;;;;1.88;0.38;;;1.80;78.70;;;;;;5115462;28;20032;-72
2021/11/30 01:34:36;;;;;;;2.53;0.30;;;1.70;79.30;;;;;;5115308;28;20566;-72
2021/11/30 01:37:01;;;;;;;0.52;0.30;;;1.90;78.10;;;;;;5114295;28;20043;-72
2021/11/30 01:39:27;;;;;;;1.08;0.40;;;2.00;77.00;;;;;;5115958;28;20047;-73
2021/11/30 01:41:54;;;;;;;0.88;0.38;;;1.90;78.50;;;;;;5116346;28;20028;-73
2021/11/30 01:44:56;;;;;;;1.40;0.73;;;1.80;79.20;;;;;;5116581;28;20031;-73
2021/11/30 01:49:53;;;;;;;1.35;0.35;;;1.80;78.20;;;;;;5102118;28;20036;-72
2021/11/30 01:52:20;;;;;;;0.43;0.30;;;1.90;77.80;;;;;;5095079;28;20028;-72
2021/11/30 01:54:47;;;;;;;1.00;0.43;;;1.90;77.70;;;;;;5111923;28;20031;-73
2021/11/30 01:57:15;;;;;;;0.57;0.30;;;1.90;77.70;;;;;;5113117;28;20031;-72
2021/11/30 01:59:42;;;;;;;1.98;0.60;;;1.90;77.90;;;;;;5111966;28;20032;-73
2021/11/30 02:02:09;;;;;;;1.27;0.40;;;1.60;79.40;;;;;;5112720;28;20401;-72
2021/11/30 02:04:36;;;;;;;0.63;0.30;;;1.60;79.60;;;;;;5111706;28;20038;-72
2021/11/30 02:07:02;;;;;;;1.08;0.43;;;1.50;79.40;;;;;;5104875;28;20028;-72
2021/11/30 02:09:29;;;;;;;1.25;0.38;;;1.70;78.80;;;;;;5103859;28;20028;-72
2021/11/30 02:11:55;;;;;;;0.77;0.40;;;1.50;81.10;;;;;;5112783;28;20055;-72
2021/11/30 02:14:21;;;;;;;0.93;0.40;;;1.40;80.40;;;;;;5112210;28;20027;-73
2021/11/30 02:16:48;;;;;;;0.82;0.40;;;1.50;79.90;;;;;;5112798;28;20027;-72
2021/11/30 02:19:14;;;;;;;2.33;0.73;;;1.40;80.80;;;;;;5112744;28;20036;-73
2021/11/30 02:21:40;;;;;;;0.57;0.30;;;1.40;80.10;;;;;;5112651;28;20028;-72
2021/11/30 02:24:09;;;;;;;1.23;0.43;;;1.40;80.50;;;;;;5112929;28;20409;-72
2021/11/30 02:26:37;;;;;;;1.02;0.50;;;1.30;81.80;;;;;;5112421;28;20118;-72
2021/11/30 02:29:05;;;;;;;1.15;0.60;;;1.10;82.20;;;;;;5113636;28;20028;-73
2021/11/30 02:31:36;;;;;;;0.93;0.50;;;1.10;82.30;;;;;;5107837;28;20028;-72
2021/11/30 02:34:04;;;;;;;1.23;0.40;;;1.00;83.60;;;;;;5113803;28;20042;-72
2021/11/30 02:39:11;;;;;;;0.68;0.25;;;1.10;82.30;;;;;;5114290;28;20035;-72
2021/11/30 02:41:38;;;;;;;1.48;0.57;;;0.80;85.30;;;;;;5113297;28;20055;-72
2021/11/30 02:44:05;;;;;;;0.88;0.50;;;1.10;82.80;;;;;;5113966;28;20019;-72
2021/11/30 02:46:36;;;;;;;0.68;0.40;;;1.10;83.60;;;;;;5101410;28;20093;-72
2021/11/30 02:49:04;;;;;;;1.08;0.38;;;1.00;83.20;;;;;;5095133;28;20034;-72
2021/11/30 02:51:32;;;;;;;1.50;0.30;;;1.20;81.80;;;;;;5113219;28;20073;-73
2021/11/30 02:54:00;;;;;;;1.15;0.22;;;1.30;81.50;;;;;;5113731;28;20015;-72
2021/11/30 02:56:28;;;;;;;0.32;0.20;;;1.20;82.40;;;;;;5113604;28;20031;-72
2021/11/30 02:58:54;;;;;;;1.15;0.40;;;1.30;80.70;;;;;;5112959;28;20019;-72
2021/11/30 03:01:20;;;;;;;0.98;0.25;;;1.10;82.70;;;;;;5113646;28;20026;-72
2021/11/30 03:03:46;;;;;;;1.20;0.52;;;1.10;82.60;;;;;;5113402;28;20478;-72
2021/11/30 03:06:12;;;;;;;1.55;0.57;;;0.90;84.20;;;;;;5113880;28;20043;-73
2021/11/30 03:08:39;;;;;;;1.92;0.30;;;1.00;82.00;;;;;;5113327;28;20030;-72
2021/11/30 03:11:07;;;;;;;1.20;0.60;;;1.30;80.10;;;;;;5096754;28;20036;-72
2021/11/30 03:13:33;;;;;;;1.33;0.40;;;1.30;81.30;;;;;;5112754;28;21015;-72
2021/11/30 03:15:59;;;;;;;2.25;0.50;;;1.10;82.80;;;;;;5113955;28;20035;-72
2021/11/30 03:18:25;;;;;;;1.30;0.50;;;1.20;81.50;;;;;;5112754;28;20389;-72
2021/11/30 03:20:50;;;;;;;0.98;0.40;;;1.10;83.00;;;;;;5112989;28;20382;-72
2021/11/30 03:23:16;;;;;;;1.10;0.60;;;0.80;86.00;;;;;;5113136;28;20024;-72
2021/11/30 03:25:43;;;;;;;1.35;0.30;;;1.00;83.20;;;;;;5113311;28;20043;-72
2021/11/30 03:28:12;;;;;;;0.40;0.20;;;1.00;83.70;;;;;;5112617;28;20024;-72
2021/11/30 03:30:41;;;;;;;1.65;0.30;;;0.90;84.60;;;;;;5111215;28;20024;-72
2021/11/30 03:35:52;;;;;;;0.65;0.30;;;0.30;88.10;;;;;;5113150;28;20085;-72
2021/11/30 03:38:18;;;;;;;0.70;0.30;;;0.30;88.20;;;;;;5112703;28;20043;-72
2021/11/30 03:40:44;;;;;;;0.32;0.28;;;0.50;86.50;;;;;;5112650;28;20016;-73
2021/11/30 03:43:10;;;;;;;0.32;0.20;;;0.70;85.30;;;;;;5112724;28;20124;-72
2021/11/30 03:45:36;;;;;;;1.65;0.40;;;1.00;83.50;;;;;;5112639;28;20402;-72
2021/11/30 03:48:01;;;;;;;1.45;0.73;;;1.00;83.60;;;;;;5112719;28;20068;-72
2021/11/30 03:50:27;;;;;;;1.35;0.50;;;1.00;85.80;;;;;;5112264;28;20024;-73
2021/11/30 03:52:53;;;;;;;1.52;0.77;;;0.80;86.80;;;;;;5112405;28;20473;-73
2021/11/30 03:55:19;;;;;;;0.80;0.28;;;0.60;86.70;;;;;;5112756;28;20038;-72
2021/11/30 03:57:44;;;;;;;0.93;0.40;;;0.40;86.70;;;;;;5112231;28;20064;-73
2021/11/30 04:00:11;;;;;;;1.48;0.60;;;0.50;87.60;;;;;;5111487;28;20032;-74
2021/11/30 04:02:39;;;;;;;1.65;0.50;;;0.30;88.00;;;;;;5099716;28;20028;-74
2021/11/30 04:05:07;;;;;;;1.67;0.60;;;0.30;89.20;;;;;;5102847;28;20048;-74
2021/11/30 04:07:33;;;;;;;2.85;0.90;;;0.20;88.20;;;;;;5105195;28;20098;-74
2021/11/30 04:09:59;;;;;;;1.05;0.50;;;0.20;90.30;;;;;;5100284;28;20393;-74
2021/11/30 04:12:25;;;;;;;0.65;0.40;;;-0.20;90.40;;;;;;5104296;28;20023;-74
2021/11/30 04:14:51;;;;;;;0.82;0.28;;;-0.40;90.90;;;;;;5103198;28;20032;-73
2021/11/30 04:17:16;;;;;;;1.80;0.52;;;-0.40;91.10;;;;;;5104581;28;20035;-74
2021/11/30 04:19:42;;;;;;;0.80;0.40;;;-0.50;91.40;;;;;;5085578;28;20028;-73
2021/11/30 04:22:08;;;;;;;3.80;0.77;;;-0.50;91.50;;;;;;5105115;28;20112;-74
2021/11/30 04:24:34;;;;;;;0.57;0.32;;;-0.30;91.10;;;;;;5107223;28;20032;-74
2021/11/30 04:26:59;;;;;;;2.05;0.60;;;-0.40;91.90;;;;;;5089495;28;20466;-74
2021/11/30 04:29:25;;;;;;;1.52;0.55;;;-0.40;91.70;;;;;;5107601;28;20030;-74
2021/11/30 04:31:51;;;;;;;2.30;0.63;;;-0.50;91.40;;;;;;5107317;28;20550;-74
2021/11/30 04:34:17;;;;;;;0.90;0.50;;;-0.40;91.40;;;;;;5106988;28;20020;-73
2021/11/30 04:36:44;;;;;;;1.10;0.35;;;-0.50;91.40;;;;;;5108063;28;20031;-74
2021/11/30 04:39:10;;;;;;;2.10;0.30;;;-0.50;91.30;;;;;;5106539;28;20024;-73
2021/11/30 04:41:35;;;;;;;1.13;0.38;;;-0.50;91.40;;;;;;5107256;28;20054;-73
2021/11/30 04:44:03;;;;;;;0.82;0.40;;;-0.50;91.60;;;;;;5106300;28;20024;-73
2021/11/30 04:46:39;;;;;;;1.48;0.60;;;-0.40;91.20;;;;;;5106952;28;20062;-73
2021/11/30 04:49:12;;;;;;;1.05;0.55;;;-0.40;91.50;;;;;;5107254;28;20514;-74
2021/11/30 04:51:38;;;;;;;1.80;0.60;;;-0.50;91.30;;;;;;5107787;28;20023;-73
2021/11/30 04:54:04;;;;;;;2.25;0.55;;;-0.40;91.40;;;;;;5106736;28;20035;-74
2021/11/30 04:56:30;;;;;;;1.33;0.35;;;-0.60;91.70;;;;;;5107093;28;20035;-73
2021/11/30 04:58:56;;;;;;;1.42;0.55;;;-0.60;91.40;;;;;;5104970;28;20031;-73
2021/11/30 05:01:21;;;;;;;0.70;0.37;;;-0.50;91.20;;;;;;5104142;28;20026;-73
2021/11/30 05:03:49;;;;;;;0.90;0.50;;;-0.50;91.60;;;;;;5103462;28;20057;-73
2021/11/30 05:06:15;;;;;;;0.57;0.30;;;-0.50;91.60;;;;;;5104022;28;20038;-73
2021/11/30 05:08:41;;;;;;;1.47;0.30;;;-0.50;91.70;;;;;;5103882;28;20411;-73
2021/11/30 05:11:07;;;;;;;2.17;0.70;;;-0.60;91.60;;;;;;5103399;28;20032;-73
2021/11/30 05:13:33;;;;;;;2.53;0.47;;;-0.60;91.90;;;;;;5104053;28;20027;-73
2021/11/30 05:15:59;;;;;;;1.30;0.60;;;-0.60;91.90;;;;;;5105856;28;20019;-73
2021/11/30 05:18:25;;;;;;;2.10;0.63;;;-0.70;92.40;;;;;;5103743;28;20031;-73
2021/11/30 05:20:53;;;;;;;1.67;0.70;;;-0.70;92.20;;;;;;5104234;28;20020;-73
2021/11/30 05:23:27;;;;;;;1.80;0.73;;;-0.80;92.30;;;;;;5103753;28;20096;-73
2021/11/30 05:25:54;;;;;;;2.63;0.30;;;-0.70;92.00;;;;;;5108555;28;20474;-73
2021/11/30 05:28:22;;;;;;;0.98;0.47;;;-0.80;92.20;;;;;;5114916;28;20075;-74
2021/11/30 05:30:48;;;;;;;0.70;0.30;;;-0.90;92.30;;;;;;5103313;28;20769;-73
2021/11/30 05:33:13;;;;;;;1.33;0.70;;;-0.90;92.80;;;;;;5104056;28;20027;-74
2021/11/30 05:35:41;;;;;;;0.57;0.32;;;-0.80;92.30;;;;;;5103273;28;20061;-73
2021/11/30 05:38:07;;;;;;;2.08;0.57;;;-0.70;91.80;;;;;;5116650;28;20030;-73
2021/11/30 05:40:33;;;;;;;1.17;0.40;;;-0.70;92.10;;;;;;5103196;28;20027;-73
2021/11/30 05:42:59;;;;;;;1.30;0.40;;;-0.70;92.00;;;;;;5103332;28;20020;-73
2021/11/30 05:45:26;;;;;;;1.52;0.60;;;-0.60;91.60;;;;;;5103848;28;20857;-73
2021/11/30 05:47:51;;;;;;;0.60;0.30;;;-0.60;91.80;;;;;;5104727;28;20054;-74
2021/11/30 05:50:18;;;;;;;1.35;0.60;;;-0.60;91.80;;;;;;5105954;28;20027;-74
2021/11/30 05:52:43;;;;;;;2.33;0.73;;;-0.60;92.00;;;;;;5106197;28;20047;-73
2021/11/30 05:55:10;;;;;;;1.98;0.50;;;-0.70;92.20;;;;;;5109206;28;20386;-73
2021/11/30 05:57:37;;;;;;;0.70;0.40;;;-0.80;92.60;;;;;;5107528;27;20027;-73
2021/11/30 06:00:05;;;;;;;1.20;0.70;;;-0.80;92.20;;;;;;5107562;28;20034;-73
2021/11/30 06:02:38;;;;;;;1.23;0.47;;;-0.80;92.40;;;;;;5107106;28;20032;-74
2021/11/30 06:05:05;;;;;;;2.00;0.40;;;-0.90;92.70;;;;;;5107343;28;20032;-73
2021/11/30 06:07:30;;;;;;;1.23;0.40;;;-0.90;92.70;;;;;;5113738;27;20111;-73
2021/11/30 06:09:56;;;;;;;3.07;0.70;;;-0.90;92.80;;;;;;5108367;27;20061;-73
2021/11/30 06:12:22;;;;;;;1.80;0.60;;;-0.70;92.20;;;;;;5105536;28;20047;-73
2021/11/30 06:14:48;;;;;;;1.87;0.60;;;-0.80;92.10;;;;;;5105271;28;20248;-73
2021/11/30 06:17:14;;;;;;;2.50;0.83;;;-0.80;92.20;;;;;;5105141;28;20055;-73
2021/11/30 06:19:40;;;;;;;6.55;1.92;;;-1.00;92.70;;;;;;5104562;27;20031;-74
2021/11/30 06:22:08;;;;;;;5.70;2.10;;;-0.90;92.80;;;;;;5105192;28;20102;-74
2021/11/30 06:24:34;;;;;;;5.07;2.45;;;-0.90;92.90;;;;;;5104999;28;20557;-73
2021/11/30 06:26:59;;;;;;;6.47;2.28;;;-0.80;92.30;;;;;;5105254;28;20034;-73
2021/11/30 06:29:25;;;;;;;6.03;2.70;;;-0.90;92.50;;;;;;5087967;28;20028;-73
2021/11/30 06:31:51;;;;;;;3.47;1.37;;;-0.90;92.60;;;;;;5111661;27;20023;-75
2021/11/30 06:34:17;;;;;;;1.10;0.57;;;-0.80;92.50;;;;;;5106354;28;20047;-73
2021/11/30 06:36:42;;;;;;;1.93;0.57;;;-0.80;92.50;;;;;;5106892;28;20388;-72
2021/11/30 06:39:08;;;;;;;0.95;0.40;;;-0.90;92.60;;;;;;5106384;28;20028;-72
2021/11/30 06:41:34;;;;;;;4.23;0.70;;;-1.00;93.00;;;;;;5104381;27;20032;-73
2021/11/30 06:44:00;;;;;;;1.00;0.60;;;-0.50;92.90;;;;;;5107064;28;20515;-72
2021/11/30 06:46:26;;;;;;;1.57;0.60;;;-0.90;92.70;;;;;;5106488;28;20067;-72
2021/11/30 06:48:52;;;;;;;2.90;0.70;;;-0.90;92.90;;;;;;5106826;28;20555;-72
2021/11/30 06:51:18;;;;;;;2.30;0.60;;;-1.00;93.00;;;;;;5107905;27;20057;-75
2021/11/30 06:53:44;;;;;;;2.00;0.40;;;-1.00;93.20;;;;;;5104425;28;20482;-72
2021/11/30 06:56:10;;;;;;;4.50;0.73;;;-0.90;92.90;;;;;;5115020;27;20023;-72
2021/11/30 06:58:37;;;;;;;3.77;0.80;;;-1.10;93.10;;;;;;5126018;27;20023;-72
2021/11/30 07:01:06;;;;;;;1.23;0.60;;;-1.00;93.20;;;;;;5126768;27;20072;-71
2021/11/30 07:03:33;;;;;;;0.85;0.40;;;-1.00;93.10;;;;;;5126650;27;20113;-71
2021/11/30 07:06:09;;;;;;;0.83;0.40;;;-1.00;93.20;;;;;;5088950;28;20508;-73
2021/11/30 07:11:20;;;;;;;1.77;0.73;;;-1.10;93.80;;;;;;5105636;28;20115;-72
2021/11/30 07:13:46;;;;;;;2.73;0.90;;;-1.30;94.20;;;;;;5105228;28;20028;-72
2021/11/30 07:16:14;;;;;;;1.92;0.85;;;-1.20;94.10;;;;;;5119736;27;20126;-72
2021/11/30 07:18:40;;;;;;;0.87;0.50;;;-1.20;93.80;;;;;;5103842;27;20568;-72
2021/11/30 07:21:07;;;;;;;1.70;0.77;;;-1.20;94.00;;;;;;5118190;27;20121;-72
2021/11/30 07:23:35;;;;;;;3.27;1.13;;;-1.10;93.60;;;;;;5125864;27;20092;-73
2021/11/30 07:26:02;;;;;;;2.93;1.50;;;-1.10;93.70;;;;;;5126122;27;20031;-72
2021/11/30 07:28:33;;;;;;;3.00;2.00;;;-1.20;94.00;;;;;;5125742;27;20019;-72
2021/11/30 07:31:08;;;;;;;5.23;2.20;;;-1.00;93.80;;;;;;5117384;27;20523;-72
2021/11/30 07:33:35;;;;;;;;;;;-1.00;93.70;;;;;;5105919;28;20880;-73
2021/11/30 07:36:02;;;;;;;3.20;1.17;;;-1.00;93.70;;;;;;5115838;27;19911;-72
2021/11/30 07:38:28;;;;;;;1.70;0.77;;;-1.00;94.20;;;;;;5125797;27;20034;-73
2021/11/30 07:40:54;;;;;;;3.93;0.90;;;-1.00;94.40;;;;;;5125696;27;20049;-72
2021/11/30 07:43:19;;;;;;;1.67;0.90;;;-0.90;94.00;;;;;;5125288;27;20603;-72
2021/11/30 07:45:45;;;;;;;1.87;0.90;;;-0.80;94.10;;;;;;5124775;27;20051;-72
2021/11/30 07:48:11;;;;;;;2.30;0.80;;;-0.80;94.30;;;;;;5125402;27;20031;-73
2021/11/30 07:50:37;;;;;;;4.38;1.42;;;-0.80;93.70;;;;;;5125227;27;20043;-72
2021/11/30 07:53:03;;;;;;;4.10;1.80;;;-0.70;94.00;;;;;;5120452;27;20028;-72
2021/11/30 07:55:29;;;;;;;3.67;1.37;;;-0.70;94.00;;;;;;5114547;27;20030;-72
2021/11/30 07:57:54;;;;;;;13.27;2.03;;;-0.70;94.10;;;;;;5125436;27;20563;-72
2021/11/30 08:00:20;;;;;;;5.33;1.53;;;-0.80;95.10;;;;;;5125229;27;20058;-72
2021/11/30 08:02:46;;;;;;;1.73;0.80;;;-1.00;95.30;;;;;;5125147;27;20035;-72
2021/11/30 08:05:13;;;;;;;3.23;1.03;;;-1.10;95.80;;;;;;5120225;27;20231;-72
2021/11/30 08:07:40;;;;;;;2.20;1.10;;;-1.00;95.70;;;;;;5104234;28;20034;-72
2021/11/30 08:10:11;;;;;;;4.50;2.17;;;-0.90;95.60;;;;;;5104709;28;20035;-73
2021/11/30 08:12:37;;;;;;;4.15;0.90;;;-0.80;95.60;;;;;;5096516;28;20031;-73
2021/11/30 08:15:04;;;;;;;5.03;1.50;;;-0.70;94.40;;;;;;5103304;28;20051;-73
2021/11/30 08:17:29;;;;;;;1.87;0.80;;;-0.40;93.50;;;;;;5116752;27;20529;-72
2021/11/30 08:19:55;;;;;;;13.53;10.17;;;-0.30;93.00;;;;;;5123427;27;20027;-72
2021/11/30 08:22:21;;;;;;;1.73;0.90;;;-0.30;92.80;;;;;;5123472;27;20023;-73
2021/11/30 08:24:47;;;;;;;1.43;0.73;;;-0.30;92.90;;;;;;5122938;27;20024;-72
2021/11/30 08:27:13;;;;;;;2.03;0.80;;;-0.20;92.80;;;;;;5122426;27;20501;-72
2021/11/30 08:29:40;;;;;;;1.30;0.60;;;-0.10;92.40;;;;;;5082434;28;20165;-73
2021/11/30 08:32:09;;;;;;;1.65;0.98;;;-0.10;92.20;;;;;;5083902;28;20035;-73
2021/11/30 08:34:39;;;;;;;1.37;0.60;;;-0.20;92.30;;;;;;5084101;28;20027;-73
2021/11/30 08:37:07;;;;;;;1.48;0.80;;;-0.10;92.20;;;;;;5066060;28;20017;-72
2021/11/30 08:39:33;;;;;;;1.47;0.73;;;-0.10;92.50;;;;;;5103004;28;20031;-74
2021/11/30 08:42:00;;;;;;;1.55;0.63;;;-0.10;92.50;;;;;;5104960;28;20027;-72
2021/11/30 08:44:27;;;;;;;2.10;0.73;;;-0.10;92.90;;;;;;5104222;28;20053;-73
2021/11/30 08:46:53;;;;;;;14.55;8.13;;;0.20;93.50;;;;;;5104396;28;20483;-73
2021/11/30 08:49:19;;;;;;;11.80;6.43;;;0.40;93.40;;;;;;5093919;28;20027;-72
2021/11/30 08:51:45;;;;;;;2.72;1.30;;;0.10;92.70;;;;;;5099270;28;20118;-73
2021/11/30 08:54:11;;;;;;;11.83;5.30;;;0.20;91.90;;;;;;5125311;28;20050;-72
2021/11/30 08:56:37;;;;;;;3.60;1.60;;;0.20;91.90;;;;;;5125331;28;20031;-73
2021/11/30 08:59:03;;;;;;;9.52;3.45;;;0.10;92.00;;;;;;5125640;28;20023;-73
2021/11/30 09:01:29;;;;;;;6.07;2.33;;;0.10;92.00;;;;;;5125148;28;20034;-76
2021/11/30 09:03:54;;;;;;;2.92;1.50;;;0.10;92.50;;;;;;5117964;28;20575;-74
2021/11/30 09:06:20;;;;;;;3.53;1.20;;;0.00;92.40;;;;;;5125370;28;20057;-73
2021/11/30 09:08:46;;;;;;;2.88;0.65;;;0.00;92.50;;;;;;5125422;28;20381;-73
2021/11/30 09:11:12;;;;;;;1.17;0.47;;;-0.10;92.20;;;;;;5125206;28;20051;-74
2021/11/30 09:13:37;;;;;;;1.33;0.70;;;0.00;91.80;;;;;;5117891;28;20043;-73
2021/11/30 09:16:03;;;;;;;3.08;1.35;;;0.20;91.40;;;;;;5114713;28;20045;-74
2021/11/30 09:18:30;;;;;;;2.30;0.75;;;3.00;98.10;;;;;;5112278;28;20024;-73
2021/11/30 09:21:00;;;;;;;13.57;6.45;;;1.70;88.90;;;;;;5107678;28;20470;-72
2021/11/30 09:23:28;;;;;;;4.38;2.03;;;1.10;90.70;;;;;;5107774;28;20077;-73
2021/11/30 09:25:57;;;;;;;13.30;5.88;;;0.70;91.00;;;;;;5107432;28;20641;-72
2021/11/30 09:28:24;;;;;;;5.25;2.53;;;0.60;91.50;;;;;;5119140;27;20066;-72
2021/11/30 09:30:50;;;;;;;2.55;1.30;;;0.50;92.30;;;;;;5115474;27;20099;-72
2021/11/30 09:33:16;;;;;;;1.27;0.88;;;0.10;92.50;;;;;;5111000;28;20110;-72
2021/11/30 09:35:42;;;;;;;2.15;0.93;;;0.10;93.30;;;;;;5110600;28;20055;-73
2021/11/30 09:38:08;;;;;;;4.05;1.60;;;0.10;93.10;;;;;;5108234;28;20024;-72
2021/11/30 09:40:35;;;;;;;9.23;4.75;;;0.10;92.30;;;;;;5114147;27;20024;-75
2021/11/30 09:43:02;;;;;;;2.88;1.38;;;0.20;92.40;;;;;;5108278;28;20058;-75
2021/11/30 09:45:31;;;;;;;4.00;1.55;;;0.10;92.30;;;;;;5089409;28;20051;-74
2021/11/30 09:47:57;;;;;;;5.00;1.40;;;0.20;93.10;;;;;;5110081;27;20027;-75
2021/11/30 09:50:24;;;;;;;7.07;2.60;;;0.20;93.20;;;;;;5127380;27;20027;-72
2021/11/30 09:52:54;;;;;;;8.65;3.83;;;0.30;92.90;;;;;;5111990;27;20362;-71
2021/11/30 09:55:22;;;;;;;5.28;2.40;;;0.20;93.80;;;;;;5128437;27;20023;-71
2021/11/30 09:57:49;;;;;;;2.22;1.00;;;0.20;93.00;;;;;;5126598;27;20043;-71
2021/11/30 10:00:16;;;;;;;3.60;1.20;;;0.20;92.70;;;;;;5128637;27;20707;-70
2021/11/30 10:02:42;;;;;;;9.63;4.88;;;0.20;92.50;;;;;;5129005;27;20526;-71
2021/11/30 10:05:08;;;;;;;4.90;1.98;;;0.20;92.50;;;;;;5128314;27;20019;-71
2021/11/30 10:07:51;;;;;;;9.18;3.88;;;0.30;91.90;;;;;;5123021;27;20063;-71
2021/11/30 10:10:30;;;;;;;4.13;1.83;;;0.50;91.60;;;;;;5107703;28;20030;-71
2021/11/30 10:13:05;;;;;;;3.63;2.15;;;0.60;91.40;;;;;;5090682;28;20456;-71
2021/11/30 10:15:47;;;;;;;6.80;3.17;;;0.70;92.20;;;;;;5086250;28;20463;-72
2021/11/30 10:18:18;;;;;;;2.70;1.40;;;0.60;92.70;;;;;;5098228;27;20023;-71
2021/11/30 10:20:46;;;;;;;2.75;1.02;;;0.40;92.20;;;;;;5126295;27;20023;-71
2021/11/30 10:23:13;;;;;;;3.93;1.33;;;0.50;91.60;;;;;;5126262;27;20504;-71
2021/11/30 10:25:40;;;;;;;5.95;2.53;;;0.60;91.40;;;;;;5126045;27;20156;-71
2021/11/30 10:28:11;;;;;;;14.98;7.80;;;0.70;91.60;;;;;;5124177;27;20031;-71
2021/11/30 10:30:43;;;;;;;5.35;2.30;;;0.70;92.50;;;;;;5105777;28;20461;-71
2021/11/30 10:33:16;;;;;;;4.88;2.45;;;0.60;93.10;;;;;;5107212;28;20080;-71
2021/11/30 10:35:44;;;;;;;3.78;1.80;;;0.80;92.40;;;;;;5106618;28;20520;-71
2021/11/30 10:38:10;;;;;;;9.98;5.38;;;1.00;91.90;;;;;;5106114;28;20035;-71
2021/11/30 10:40:39;;;;;;;32.70;19.10;;;1.10;91.80;;;;;;5125975;27;20980;-71
2021/11/30 10:43:10;;;;;;;7.80;3.42;;;1.30;91.80;;;;;;5126981;27;20038;-71
2021/11/30 10:45:44;;;;;;;4.05;1.80;;;1.40;91.60;;;;;;5126661;27;20126;-71
2021/11/30 10:48:20;;;;;;;6.25;1.98;;;1.70;91.90;;;;;;5119439;27;20134;-71
2021/11/30 10:50:50;;;;;;;9.48;4.20;;;1.60;91.30;;;;;;5077411;28;20476;-71
2021/11/30 10:53:24;;;;;;;16.65;9.07;;;1.80;91.40;;;;;;5106300;28;20063;-72
2021/11/30 10:55:53;;;;;;;;;;;1.80;91.50;;;;;;5105231;28;20057;-71
2021/11/30 10:58:20;;;;;;;4.68;2.50;;;2.00;91.70;;;;;;5104910;28;20391;-71
2021/11/30 11:00:46;;;;;;;4.80;1.60;;;2.10;91.80;;;;;;5090089;28;20111;-71
2021/11/30 11:03:17;;;;;;;4.50;1.58;;;2.20;91.70;;;;;;5085979;28;20024;-71
2021/11/30 11:06:28;;;;;;;3.17;1.00;;;2.20;90.90;;;;;;5085269;28;20123;-71
2021/11/30 11:08:44;;;;;;;3.40;1.27;;;2.30;91.10;;;;;;5087286;28;20038;-71
2021/11/30 11:11:14;;;;;;;3.05;1.23;;;2.40;90.90;;;;;;5101217;28;20062;-71
2021/11/30 11:13:42;;;;;;;6.00;2.10;;;2.50;90.50;;;;;;5106823;28;20773;-71
2021/11/30 11:16:35;;;;;;;4.95;2.58;;;2.50;90.90;;;;;;5107840;28;20504;-71
2021/11/30 11:19:04;;;;;;;8.32;4.40;;;2.60;90.90;;;;;;5108688;28;20102;-71
2021/11/30 11:21:38;;;;;;;4.00;1.65;;;2.80;90.60;;;;;;5094775;27;20023;-71
2021/11/30 11:24:25;;;;;;;3.15;1.13;;;3.00;89.90;;;;;;5088598;28;20042;-71
2021/11/30 11:26:56;;;;;;;5.18;1.88;;;3.00;89.20;;;;;;5087017;28;20032;-71
2021/11/30 11:29:26;;;;;;;4.32;1.45;;;3.00;90.70;;;;;;5087080;28;20070;-71
2021/11/30 11:31:58;;;;;;;4.65;1.73;;;3.20;90.50;;;;;;5094258;27;20058;-71
2021/11/30 11:34:29;;;;;;;3.53;1.45;;;3.30;90.30;;;;;;5127770;27;20610;-71
2021/11/30 11:36:57;;;;;;;2.78;1.48;;;3.30;90.10;;;;;;5109374;27;20552;-71
2021/11/30 11:39:25;;;;;;;7.80;1.55;;;3.30;89.80;;;;;;5127796;27;20019;-71
2021/11/30 11:41:57;;;;;;;3.35;1.63;;;3.50;90.00;;;;;;5128690;27;20068;-71
2021/11/30 11:44:23;;;;;;;7.65;1.42;;;3.60;89.50;;;;;;5109015;28;20026;-71
2021/11/30 11:46:52;;;;;;;6.30;2.10;;;3.70;89.70;;;;;;5109614;27;20074;-71
2021/11/30 11:49:20;;;;;;;2.33;1.48;;;3.70;89.90;;;;;;5121997;27;20037;-72
2021/11/30 11:51:49;;;;;;;3.83;1.70;;;3.60;88.00;;;;;;5102465;27;20032;-71
2021/11/30 11:54:28;;;;;;;4.43;1.63;;;3.60;88.60;;;;;;5087788;28;20085;-71
2021/11/30 11:57:09;;;;;;;3.03;1.42;;;3.70;88.60;;;;;;5086453;28;20062;-70
2021/11/30 11:59:40;;;;;;;5.05;1.67;;;3.90;89.10;;;;;;5110428;27;20527;-72
2021/11/30 12:02:13;;;;;;;3.45;1.40;;;4.10;90.50;;;;;;5127133;27;20023;-71
2021/11/30 12:04:42;;;;;;;5.10;1.77;;;4.20;88.00;;;;;;5108272;27;20111;-72
2021/11/30 12:07:08;;;;;;;7.35;2.42;;;4.40;91.20;;;;;;5122263;27;20482;-72
2021/11/30 12:09:35;;;;;;;4.95;2.42;;;4.30;89.10;;;;;;5127535;27;20020;-72
2021/11/30 12:12:10;;;;;;;5.00;2.28;;;4.20;87.50;;;;;;5128831;27;20019;-72
2021/11/30 12:14:41;;;;;;;11.25;6.30;;;4.20;89.90;;;;;;5128684;27;20372;-72
2021/11/30 12:17:25;;;;;;;8.88;5.20;;;4.30;88.90;;;;;;5126664;27;20025;-71
2021/11/30 12:19:56;;;;;;;6.65;2.63;;;4.40;88.20;;;;;;5128334;27;20106;-72
2021/11/30 12:22:44;;;;;;;4.63;2.17;;;4.30;89.20;;;;;;5121516;27;20031;-72
2021/11/30 12:25:41;;;;;;;5.35;2.25;;;4.30;89.10;;;;;;5087500;28;20024;-72
2021/11/30 12:28:09;;;;;;;3.85;1.88;;;4.20;89.00;;;;;;5119290;27;20038;-71
2021/11/30 12:30:55;;;;;;;4.85;2.40;;;4.20;88.50;;;;;;5124955;27;20373;-72
2021/11/30 12:33:30;;;;;;;3.53;1.50;;;4.20;88.20;;;;;;5126819;27;20102;-71
2021/11/30 12:36:04;;;;;;;2.55;1.40;;;4.20;88.30;;;;;;5126525;27;20021;-72
2021/11/30 12:38:56;;;;;;;4.45;2.30;;;4.20;88.00;;;;;;5108148;27;20192;-71
2021/11/30 12:41:27;;;;;;;6.32;1.90;;;4.20;86.90;;;;;;5109628;27;20027;-72
2021/11/30 12:43:56;;;;;;;2.97;1.42;;;4.20;87.30;;;;;;5107751;28;20030;-72
2021/11/30 12:46:32;;;;;;;4.97;1.98;;;4.20;88.00;;;;;;5107775;28;20584;-72
2021/11/30 12:48:58;;;;;;;3.25;1.50;;;4.30;88.10;;;;;;5105329;28;20051;-72
2021/11/30 12:51:34;;;;;;;4.35;1.98;;;4.30;87.10;;;;;;5118748;28;20093;-72
2021/11/30 12:54:02;;;;;;;5.90;1.52;;;4.30;87.30;;;;;;5127452;28;20019;-71
2021/11/30 12:56:50;;;;;;;5.82;1.63;;;4.20;86.50;;;;;;5126532;28;20019;-72
2021/11/30 12:59:42;;;;;;;2.80;1.33;;;4.30;85.70;;;;;;5126571;28;20031;-72
2021/11/30 13:02:23;;;;;;;4.10;1.50;;;4.40;86.90;;;;;;5067235;28;20079;-72
2021/11/30 13:04:52;;;;;;;6.75;1.75;;;4.50;87.40;;;;;;5090000;28;20032;-71
2021/11/30 13:07:19;;;;;;;3.97;1.90;;;4.70;88.10;;;;;;5099969;28;20046;-72
2021/11/30 13:09:54;;;;;;;4.28;1.55;;;4.70;87.50;;;;;;5091041;28;20035;-72